HEBA

Borg El Arab International Airport

Alexandria, Egypt
METAR HEBA 241400Z 33012KT CAVOK 28/20 Q1011 NOSIG
Observed Flight Rules
Jun-24 @ 14:00 UTC (an hour ago) Visual Flight Rules
Wind Visibility Clouds
330° at 12 knots 10,000+ meters
  • Clear skies
Temperatures Readings
Current 28°C / 82°F
Dewpoint 20°C / 68°F
Humidity 62%
Altimeter 29.85" Hg
Pressure 1011 hPa
Elevation 54
METAR HEBA 241400Z 33012KT CAVOK 28/20 Q1011 NOSIG
Observed Flight Rules
Jun-24 @ 14:00 UTC
(an hour ago)
VFR
Wind Visibility
330° at 12 knots 10,000+ meters
Clouds
  • Clear skies
Temperature Dewpoint
28°C / 82°F 20°C / 68°F
Humidity Altimeter Pressure
62% 29.85" Hg 1011 hPa